sensor_id;sensor_type;location;lat;lon;timestamp;P1;durP1;ratioP1;P2;durP2;ratioP2
1088;SDS011;533;53.556;9.990;2022-09-09T00:02:17;35.87;;;25.87;;
1088;SDS011;533;53.556;9.990;2022-09-09T00:07:43;39.97;;;29.03;;
1088;SDS011;533;53.556;9.990;2022-09-09T00:10:29;46.37;;;30.17;;
1088;SDS011;533;53.556;9.990;2022-09-09T00:16:15;39.60;;;28.87;;
1088;SDS011;533;53.556;9.990;2022-09-09T00:21:36;42.37;;;29.67;;
1088;SDS011;533;53.556;9.990;2022-09-09T00:24:10;43.73;;;28.73;;
1088;SDS011;533;53.556;9.990;2022-09-09T00:27:11;46.23;;;32.13;;
1088;SDS011;533;53.556;9.990;2022-09-09T00:29:54;42.30;;;30.30;;
1088;SDS011;533;53.556;9.990;2022-09-09T00:32:46;43.17;;;28.20;;
1088;SDS011;533;53.556;9.990;2022-09-09T00:35:23;45.70;;;30.40;;
1088;SDS011;533;53.556;9.990;2022-09-09T00:38:00;52.00;;;28.50;;
1088;SDS011;533;53.556;9.990;2022-09-09T00:40:39;40.60;;;26.73;;
1088;SDS011;533;53.556;9.990;2022-09-09T00:43:38;35.57;;;25.40;;
1088;SDS011;533;53.556;9.990;2022-09-09T00:46:18;35.83;;;25.63;;
1088;SDS011;533;53.556;9.990;2022-09-09T01:02:52;36.07;;;25.60;;
1088;SDS011;533;53.556;9.990;2022-09-09T01:05:54;38.60;;;24.43;;
1088;SDS011;533;53.556;9.990;2022-09-09T01:11:10;34.03;;;22.53;;
1088;SDS011;533;53.556;9.990;2022-09-09T01:13:49;31.40;;;22.33;;
1088;SDS011;533;53.556;9.990;2022-09-09T01:16:32;33.03;;;23.60;;
1088;SDS011;533;53.556;9.990;2022-09-09T01:19:04;31.03;;;22.20;;
1088;SDS011;533;53.556;9.990;2022-09-09T01:22:00;29.93;;;22.43;;
1088;SDS011;533;53.556;9.990;2022-09-09T01:24:47;31.10;;;20.90;;
1088;SDS011;533;53.556;9.990;2022-09-09T01:27:59;30.20;;;21.50;;
1088;SDS011;533;53.556;9.990;2022-09-09T01:30:37;32.63;;;21.30;;
1088;SDS011;533;53.556;9.990;2022-09-09T01:33:15;29.60;;;22.47;;
1088;SDS011;533;53.556;9.990;2022-09-09T01:35:50;31.10;;;20.33;;
1088;SDS011;533;53.556;9.990;2022-09-09T01:38:33;28.87;;;20.77;;
1088;SDS011;533;53.556;9.990;2022-09-09T01:41:07;29.73;;;21.93;;
1088;SDS011;533;53.556;9.990;2022-09-09T01:43:59;31.53;;;20.30;;
1088;SDS011;533;53.556;9.990;2022-09-09T01:46:33;31.13;;;21.97;;
1088;SDS011;533;53.556;9.990;2022-09-09T01:49:07;29.20;;;21.07;;
1088;SDS011;533;53.556;9.990;2022-09-09T01:51:40;28.80;;;21.43;;
1088;SDS011;533;53.556;9.990;2022-09-09T01:54:15;30.93;;;19.97;;
1088;SDS011;533;53.556;9.990;2022-09-09T01:59:50;29.80;;;20.00;;
1088;SDS011;533;53.556;9.990;2022-09-09T02:02:59;30.40;;;21.93;;
1088;SDS011;533;53.556;9.990;2022-09-09T02:05:45;27.83;;;19.43;;
1088;SDS011;533;53.556;9.990;2022-09-09T02:11:14;27.47;;;19.80;;
1088;SDS011;533;53.556;9.990;2022-09-09T02:13:53;29.90;;;20.20;;
1088;SDS011;533;53.556;9.990;2022-09-09T02:16:31;28.93;;;21.07;;
1088;SDS011;533;53.556;9.990;2022-09-09T02:19:19;29.47;;;19.60;;
1088;SDS011;533;53.556;9.990;2022-09-09T02:22:05;33.77;;;21.33;;
1088;SDS011;533;53.556;9.990;2022-09-09T02:24:38;25.93;;;18.70;;
1088;SDS011;533;53.556;9.990;2022-09-09T02:27:26;27.10;;;20.10;;
1088;SDS011;533;53.556;9.990;2022-09-09T02:29:58;29.93;;;21.47;;
1088;SDS011;533;53.556;9.990;2022-09-09T02:32:44;28.40;;;20.90;;
1088;SDS011;533;53.556;9.990;2022-09-09T02:35:21;30.27;;;20.50;;
1088;SDS011;533;53.556;9.990;2022-09-09T02:37:56;27.20;;;20.00;;
1088;SDS011;533;53.556;9.990;2022-09-09T02:40:31;32.07;;;20.47;;
1088;SDS011;533;53.556;9.990;2022-09-09T02:43:06;26.50;;;20.10;;
1088;SDS011;533;53.556;9.990;2022-09-09T02:45:41;29.17;;;20.70;;
1088;SDS011;533;53.556;9.990;2022-09-09T02:48:26;30.37;;;20.90;;
1088;SDS011;533;53.556;9.990;2022-09-09T02:53:43;27.30;;;20.60;;
1088;SDS011;533;53.556;9.990;2022-09-09T02:56:21;25.97;;;19.70;;
1088;SDS011;533;53.556;9.990;2022-09-09T02:58:55;25.47;;;18.70;;
1088;SDS011;533;53.556;9.990;2022-09-09T03:01:28;26.43;;;18.97;;
1088;SDS011;533;53.556;9.990;2022-09-09T03:04:01;26.93;;;18.80;;
1088;SDS011;533;53.556;9.990;2022-09-09T03:06:34;22.93;;;18.37;;
1088;SDS011;533;53.556;9.990;2022-09-09T03:09:17;25.80;;;19.60;;
1088;SDS011;533;53.556;9.990;2022-09-09T03:11:49;29.90;;;18.77;;
1088;SDS011;533;53.556;9.990;2022-09-09T03:14:23;23.67;;;18.53;;
1088;SDS011;533;53.556;9.990;2022-09-09T03:16:57;24.97;;;18.20;;
1088;SDS011;533;53.556;9.990;2022-09-09T03:19:35;22.53;;;18.00;;
1088;SDS011;533;53.556;9.990;2022-09-09T03:22:09;28.03;;;19.13;;
1088;SDS011;533;53.556;9.990;2022-09-09T03:24:44;25.20;;;19.13;;
1088;SDS011;533;53.556;9.990;2022-09-09T03:27:18;24.87;;;18.40;;
1088;SDS011;533;53.556;9.990;2022-09-09T03:29:51;23.83;;;18.17;;
1088;SDS011;533;53.556;9.990;2022-09-09T03:32:27;23.57;;;17.53;;
1088;SDS011;533;53.556;9.990;2022-09-09T03:35:01;26.47;;;19.60;;
1088;SDS011;533;53.556;9.990;2022-09-09T03:37:34;22.10;;;17.47;;
1088;SDS011;533;53.556;9.990;2022-09-09T03:40:06;23.10;;;17.43;;
1088;SDS011;533;53.556;9.990;2022-09-09T03:42:40;23.33;;;17.00;;
1088;SDS011;533;53.556;9.990;2022-09-09T03:45:12;21.83;;;17.30;;
1088;SDS011;533;53.556;9.990;2022-09-09T03:47:45;22.90;;;17.30;;
1088;SDS011;533;53.556;9.990;2022-09-09T03:50:18;22.90;;;16.83;;
1088;SDS011;533;53.556;9.990;2022-09-09T03:52:51;21.53;;;17.40;;
1088;SDS011;533;53.556;9.990;2022-09-09T03:55:26;24.13;;;18.30;;
1088;SDS011;533;53.556;9.990;2022-09-09T03:57:58;26.23;;;19.60;;
1088;SDS011;533;53.556;9.990;2022-09-09T04:00:33;25.73;;;19.80;;
1088;SDS011;533;53.556;9.990;2022-09-09T04:03:05;28.57;;;21.23;;
1088;SDS011;533;53.556;9.990;2022-09-09T04:05:39;27.33;;;18.70;;
1088;SDS011;533;53.556;9.990;2022-09-09T04:08:14;24.80;;;18.00;;
1088;SDS011;533;53.556;9.990;2022-09-09T04:10:47;23.50;;;17.23;;
1088;SDS011;533;53.556;9.990;2022-09-09T04:13:20;23.90;;;17.70;;
1088;SDS011;533;53.556;9.990;2022-09-09T04:15:54;22.63;;;17.20;;
1088;SDS011;533;53.556;9.990;2022-09-09T04:18:27;22.60;;;17.10;;
1088;SDS011;533;53.556;9.990;2022-09-09T04:21:00;21.37;;;15.97;;
1088;SDS011;533;53.556;9.990;2022-09-09T04:23:34;19.93;;;15.20;;
1088;SDS011;533;53.556;9.990;2022-09-09T04:26:08;19.40;;;15.97;;
1088;SDS011;533;53.556;9.990;2022-09-09T04:28:41;20.60;;;15.80;;
1088;SDS011;533;53.556;9.990;2022-09-09T04:31:19;35.43;;;16.27;;
1088;SDS011;533;53.556;9.990;2022-09-09T04:33:57;22.33;;;16.23;;
1088;SDS011;533;53.556;9.990;2022-09-09T04:36:31;22.47;;;15.13;;
1088;SDS011;533;53.556;9.990;2022-09-09T04:39:07;18.80;;;15.27;;
1088;SDS011;533;53.556;9.990;2022-09-09T04:41:39;20.20;;;15.47;;
1088;SDS011;533;53.556;9.990;2022-09-09T04:44:11;18.47;;;14.90;;
1088;SDS011;533;53.556;9.990;2022-09-09T04:46:43;18.70;;;14.20;;
1088;SDS011;533;53.556;9.990;2022-09-09T04:49:16;18.73;;;14.33;;
1088;SDS011;533;53.556;9.990;2022-09-09T04:51:51;19.97;;;14.90;;
1088;SDS011;533;53.556;9.990;2022-09-09T04:54:23;15.97;;;13.03;;
1088;SDS011;533;53.556;9.990;2022-09-09T04:56:55;16.43;;;13.23;;
1088;SDS011;533;53.556;9.990;2022-09-09T04:59:27;18.30;;;13.43;;
1088;SDS011;533;53.556;9.990;2022-09-09T05:02:01;15.60;;;13.10;;
1088;SDS011;533;53.556;9.990;2022-09-09T05:04:33;16.40;;;13.20;;
1088;SDS011;533;53.556;9.990;2022-09-09T05:07:06;16.70;;;13.47;;
1088;SDS011;533;53.556;9.990;2022-09-09T05:09:38;17.97;;;14.27;;
1088;SDS011;533;53.556;9.990;2022-09-09T05:12:11;15.80;;;13.20;;
1088;SDS011;533;53.556;9.990;2022-09-09T05:14:51;15.83;;;12.77;;
1088;SDS011;533;53.556;9.990;2022-09-09T05:17:23;14.67;;;12.20;;
1088;SDS011;533;53.556;9.990;2022-09-09T05:19:55;14.30;;;12.03;;
1088;SDS011;533;53.556;9.990;2022-09-09T05:22:29;16.37;;;12.70;;
1088;SDS011;533;53.556;9.990;2022-09-09T05:25:02;17.27;;;11.70;;
1088;SDS011;533;53.556;9.990;2022-09-09T05:27:34;15.30;;;11.80;;
1088;SDS011;533;53.556;9.990;2022-09-09T05:30:06;15.73;;;12.80;;
1088;SDS011;533;53.556;9.990;2022-09-09T05:32:39;15.37;;;12.80;;
1088;SDS011;533;53.556;9.990;2022-09-09T05:35:12;26.73;;;24.10;;
1088;SDS011;533;53.556;9.990;2022-09-09T05:37:44;17.43;;;15.63;;
1088;SDS011;533;53.556;9.990;2022-09-09T05:40:18;15.37;;;10.83;;
1088;SDS011;533;53.556;9.990;2022-09-09T05:42:50;11.50;;;10.30;;
1088;SDS011;533;53.556;9.990;2022-09-09T05:45:22;14.47;;;11.57;;
1088;SDS011;533;53.556;9.990;2022-09-09T05:47:54;14.33;;;10.93;;
1088;SDS011;533;53.556;9.990;2022-09-09T05:50:27;16.87;;;12.00;;
1088;SDS011;533;53.556;9.990;2022-09-09T05:53:02;13.00;;;11.17;;
1088;SDS011;533;53.556;9.990;2022-09-09T05:55:35;12.90;;;10.23;;
1088;SDS011;533;53.556;9.990;2022-09-09T05:58:08;14.50;;;10.53;;
1088;SDS011;533;53.556;9.990;2022-09-09T06:00:42;13.53;;;11.10;;
1088;SDS011;533;53.556;9.990;2022-09-09T06:03:15;15.53;;;10.50;;
1088;SDS011;533;53.556;9.990;2022-09-09T06:05:56;11.63;;;9.50;;
1088;SDS011;533;53.556;9.990;2022-09-09T06:08:29;14.03;;;10.83;;
1088;SDS011;533;53.556;9.990;2022-09-09T06:11:02;14.40;;;11.00;;
1088;SDS011;533;53.556;9.990;2022-09-09T06:13:35;16.00;;;10.97;;
1088;SDS011;533;53.556;9.990;2022-09-09T06:16:11;15.50;;;10.60;;
1088;SDS011;533;53.556;9.990;2022-09-09T06:18:45;12.63;;;9.60;;
1088;SDS011;533;53.556;9.990;2022-09-09T06:21:19;12.97;;;10.73;;
1088;SDS011;533;53.556;9.990;2022-09-09T06:23:55;18.70;;;11.37;;
1088;SDS011;533;53.556;9.990;2022-09-09T06:26:32;13.97;;;10.30;;
1088;SDS011;533;53.556;9.990;2022-09-09T06:29:07;15.70;;;11.17;;
1088;SDS011;533;53.556;9.990;2022-09-09T06:31:39;14.80;;;11.00;;
1088;SDS011;533;53.556;9.990;2022-09-09T06:34:19;15.57;;;11.20;;
1088;SDS011;533;53.556;9.990;2022-09-09T06:36:55;15.80;;;10.33;;
1088;SDS011;533;53.556;9.990;2022-09-09T06:39:30;12.80;;;10.63;;
1088;SDS011;533;53.556;9.990;2022-09-09T06:42:03;18.67;;;10.83;;
1088;SDS011;533;53.556;9.990;2022-09-09T06:45:01;14.90;;;11.10;;
1088;SDS011;533;53.556;9.990;2022-09-09T06:47:47;17.47;;;11.70;;
1088;SDS011;533;53.556;9.990;2022-09-09T06:50:19;17.30;;;10.83;;
1088;SDS011;533;53.556;9.990;2022-09-09T06:52:53;16.10;;;11.23;;
1088;SDS011;533;53.556;9.990;2022-09-09T06:55:25;13.40;;;10.23;;
1088;SDS011;533;53.556;9.990;2022-09-09T06:57:58;12.53;;;9.37;;
1088;SDS011;533;53.556;9.990;2022-09-09T07:00:30;10.20;;;8.30;;
1088;SDS011;533;53.556;9.990;2022-09-09T07:03:03;12.53;;;10.03;;
1088;SDS011;533;53.556;9.990;2022-09-09T07:05:35;14.20;;;10.63;;
1088;SDS011;533;53.556;9.990;2022-09-09T07:08:07;16.53;;;10.50;;
1088;SDS011;533;53.556;9.990;2022-09-09T07:10:40;13.10;;;10.00;;
1088;SDS011;533;53.556;9.990;2022-09-09T07:13:12;13.90;;;10.17;;
1088;SDS011;533;53.556;9.990;2022-09-09T07:15:47;12.23;;;9.17;;
1088;SDS011;533;53.556;9.990;2022-09-09T07:18:19;11.40;;;8.90;;
1088;SDS011;533;53.556;9.990;2022-09-09T07:20:54;11.50;;;8.80;;
1088;SDS011;533;53.556;9.990;2022-09-09T07:23:29;16.50;;;8.10;;
1088;SDS011;533;53.556;9.990;2022-09-09T07:26:10;12.93;;;9.50;;
1088;SDS011;533;53.556;9.990;2022-09-09T07:28:47;11.57;;;9.00;;
1088;SDS011;533;53.556;9.990;2022-09-09T07:31:21;9.97;;;8.50;;
1088;SDS011;533;53.556;9.990;2022-09-09T07:33:56;9.97;;;7.90;;
1088;SDS011;533;53.556;9.990;2022-09-09T07:36:29;13.27;;;9.67;;
1088;SDS011;533;53.556;9.990;2022-09-09T07:39:06;11.03;;;9.33;;
1088;SDS011;533;53.556;9.990;2022-09-09T07:41:44;9.77;;;8.77;;
1088;SDS011;533;53.556;9.990;2022-09-09T07:44:19;10.03;;;8.73;;
1088;SDS011;533;53.556;9.990;2022-09-09T07:47:06;11.70;;;8.50;;
1088;SDS011;533;53.556;9.990;2022-09-09T07:49:42;11.00;;;9.33;;
1088;SDS011;533;53.556;9.990;2022-09-09T07:52:15;11.97;;;9.53;;
1088;SDS011;533;53.556;9.990;2022-09-09T07:54:53;10.60;;;8.30;;
1088;SDS011;533;53.556;9.990;2022-09-09T07:57:25;15.00;;;8.67;;
1088;SDS011;533;53.556;9.990;2022-09-09T07:59:59;12.20;;;8.80;;
1088;SDS011;533;53.556;9.990;2022-09-09T08:02:32;14.03;;;9.10;;
1088;SDS011;533;53.556;9.990;2022-09-09T08:05:04;13.37;;;8.33;;
1088;SDS011;533;53.556;9.990;2022-09-09T08:07:38;12.50;;;10.30;;
1088;SDS011;533;53.556;9.990;2022-09-09T08:10:10;9.90;;;8.73;;
1088;SDS011;533;53.556;9.990;2022-09-09T08:12:45;15.23;;;9.10;;
1088;SDS011;533;53.556;9.990;2022-09-09T08:15:32;8.73;;;7.90;;
1088;SDS011;533;53.556;9.990;2022-09-09T08:18:05;12.13;;;8.30;;
1088;SDS011;533;53.556;9.990;2022-09-09T08:20:38;8.97;;;7.63;;
1088;SDS011;533;53.556;9.990;2022-09-09T08:23:10;13.23;;;8.77;;
1088;SDS011;533;53.556;9.990;2022-09-09T08:25:42;8.60;;;7.77;;
1088;SDS011;533;53.556;9.990;2022-09-09T08:28:14;11.93;;;8.90;;
1088;SDS011;533;53.556;9.990;2022-09-09T08:30:46;12.33;;;8.33;;
1088;SDS011;533;53.556;9.990;2022-09-09T08:33:19;10.77;;;8.37;;
1088;SDS011;533;53.556;9.990;2022-09-09T08:35:55;13.33;;;9.03;;
1088;SDS011;533;53.556;9.990;2022-09-09T08:38:27;9.37;;;7.80;;
1088;SDS011;533;53.556;9.990;2022-09-09T08:41:04;11.07;;;8.00;;
1088;SDS011;533;53.556;9.990;2022-09-09T08:43:44;13.53;;;8.47;;
1088;SDS011;533;53.556;9.990;2022-09-09T08:46:29;11.80;;;8.47;;
1088;SDS011;533;53.556;9.990;2022-09-09T08:51:50;6.47;;;5.23;;
1088;SDS011;533;53.556;9.990;2022-09-09T08:54:27;10.37;;;6.90;;
1088;SDS011;533;53.556;9.990;2022-09-09T08:57:23;7.93;;;6.27;;
1088;SDS011;533;53.556;9.990;2022-09-09T08:59:58;7.60;;;6.30;;
1088;SDS011;533;53.556;9.990;2022-09-09T09:10:46;8.83;;;5.43;;
1088;SDS011;533;53.556;9.990;2022-09-09T09:13:27;8.20;;;6.33;;
1088;SDS011;533;53.556;9.990;2022-09-09T09:16:17;8.60;;;6.67;;
1088;SDS011;533;53.556;9.990;2022-09-09T09:18:54;7.87;;;4.47;;
1088;SDS011;533;53.556;9.990;2022-09-09T09:21:34;5.67;;;3.00;;
1088;SDS011;533;53.556;9.990;2022-09-09T09:24:27;7.83;;;5.43;;
1088;SDS011;533;53.556;9.990;2022-09-09T09:27:11;7.33;;;4.90;;
1088;SDS011;533;53.556;9.990;2022-09-09T09:29:50;6.50;;;4.80;;
1088;SDS011;533;53.556;9.990;2022-09-09T09:32:46;9.30;;;4.43;;
1088;SDS011;533;53.556;9.990;2022-09-09T09:35:25;6.30;;;4.40;;
1088;SDS011;533;53.556;9.990;2022-09-09T09:37:57;7.50;;;5.07;;
1088;SDS011;533;53.556;9.990;2022-09-09T09:40:54;8.00;;;4.10;;
1088;SDS011;533;53.556;9.990;2022-09-09T09:43:34;5.70;;;3.63;;
1088;SDS011;533;53.556;9.990;2022-09-09T09:46:20;6.43;;;4.57;;
1088;SDS011;533;53.556;9.990;2022-09-09T09:49:02;8.97;;;4.67;;
1088;SDS011;533;53.556;9.990;2022-09-09T09:51:37;7.37;;;4.80;;
1088;SDS011;533;53.556;9.990;2022-09-09T09:56:55;6.90;;;4.30;;
1088;SDS011;533;53.556;9.990;2022-09-09T10:04:46;4.47;;;3.90;;
1088;SDS011;533;53.556;9.990;2022-09-09T10:07:20;7.13;;;4.40;;
1088;SDS011;533;53.556;9.990;2022-09-09T10:09:53;6.63;;;3.60;;
1088;SDS011;533;53.556;9.990;2022-09-09T10:15:38;8.77;;;5.63;;
1088;SDS011;533;53.556;9.990;2022-09-09T10:26:49;9.33;;;4.93;;
1088;SDS011;533;53.556;9.990;2022-09-09T10:29:47;4.47;;;4.07;;
1088;SDS011;533;53.556;9.990;2022-09-09T10:32:38;4.50;;;3.27;;
1088;SDS011;533;53.556;9.990;2022-09-09T10:54:58;6.03;;;4.10;;
1088;SDS011;533;53.556;9.990;2022-09-09T10:57:41;4.70;;;3.57;;
1088;SDS011;533;53.556;9.990;2022-09-09T11:00:19;4.23;;;2.70;;
1088;SDS011;533;53.556;9.990;2022-09-09T11:03:01;6.13;;;2.80;;
1088;SDS011;533;53.556;9.990;2022-09-09T11:05:44;4.97;;;4.00;;
1088;SDS011;533;53.556;9.990;2022-09-09T11:08:25;4.30;;;3.37;;
1088;SDS011;533;53.556;9.990;2022-09-09T11:10:59;4.90;;;2.23;;
1088;SDS011;533;53.556;9.990;2022-09-09T11:13:51;3.70;;;3.13;;
1088;SDS011;533;53.556;9.990;2022-09-09T11:16:33;4.70;;;3.87;;
1088;SDS011;533;53.556;9.990;2022-09-09T11:21:57;6.57;;;3.27;;
1088;SDS011;533;53.556;9.990;2022-09-09T11:24:32;5.20;;;3.03;;
1088;SDS011;533;53.556;9.990;2022-09-09T11:30:22;5.73;;;2.40;;
1088;SDS011;533;53.556;9.990;2022-09-09T11:42:22;4.20;;;3.20;;
1088;SDS011;533;53.556;9.990;2022-09-09T11:44:55;5.40;;;3.77;;
1088;SDS011;533;53.556;9.990;2022-09-09T11:47:29;8.73;;;4.27;;
1088;SDS011;533;53.556;9.990;2022-09-09T11:52:47;5.87;;;4.70;;
1088;SDS011;533;53.556;9.990;2022-09-09T11:55:29;16.17;;;4.00;;
1088;SDS011;533;53.556;9.990;2022-09-09T11:58:05;5.00;;;4.50;;
1088;SDS011;533;53.556;9.990;2022-09-09T12:00:47;5.27;;;3.10;;
1088;SDS011;533;53.556;9.990;2022-09-09T12:03:38;5.77;;;3.23;;
1088;SDS011;533;53.556;9.990;2022-09-09T12:06:15;6.40;;;4.00;;
1088;SDS011;533;53.556;9.990;2022-09-09T12:08:51;4.37;;;3.47;;
1088;SDS011;533;53.556;9.990;2022-09-09T12:11:27;6.80;;;4.00;;
1088;SDS011;533;53.556;9.990;2022-09-09T12:14:00;6.30;;;4.07;;
1088;SDS011;533;53.556;9.990;2022-09-09T12:16:33;4.40;;;3.17;;
1088;SDS011;533;53.556;9.990;2022-09-09T12:19:13;9.10;;;4.17;;
1088;SDS011;533;53.556;9.990;2022-09-09T12:24:39;12.20;;;6.53;;
1088;SDS011;533;53.556;9.990;2022-09-09T12:27:18;9.30;;;5.60;;
1088;SDS011;533;53.556;9.990;2022-09-09T12:32:27;4.50;;;3.77;;
1088;SDS011;533;53.556;9.990;2022-09-09T12:35:02;6.50;;;3.73;;
1088;SDS011;533;53.556;9.990;2022-09-09T12:37:42;7.60;;;4.77;;
1088;SDS011;533;53.556;9.990;2022-09-09T12:40:21;6.67;;;5.33;;
1088;SDS011;533;53.556;9.990;2022-09-09T12:43:19;8.70;;;4.80;;
1088;SDS011;533;53.556;9.990;2022-09-09T12:45:58;9.33;;;4.57;;
1088;SDS011;533;53.556;9.990;2022-09-09T12:48:36;6.10;;;4.93;;
1088;SDS011;533;53.556;9.990;2022-09-09T12:51:19;4.70;;;4.30;;
1088;SDS011;533;53.556;9.990;2022-09-09T12:53:56;8.90;;;5.40;;
1088;SDS011;533;53.556;9.990;2022-09-09T12:56:31;7.57;;;5.40;;
1088;SDS011;533;53.556;9.990;2022-09-09T12:59:04;9.43;;;5.97;;
1088;SDS011;533;53.556;9.990;2022-09-09T13:01:35;7.57;;;5.70;;
1088;SDS011;533;53.556;9.990;2022-09-09T13:04:20;16.40;;;7.10;;
1088;SDS011;533;53.556;9.990;2022-09-09T13:06:53;6.60;;;4.93;;
1088;SDS011;533;53.556;9.990;2022-09-09T13:09:27;6.27;;;5.67;;
1088;SDS011;533;53.556;9.990;2022-09-09T13:11:59;7.33;;;5.07;;
1088;SDS011;533;53.556;9.990;2022-09-09T13:14:34;6.63;;;5.70;;
1088;SDS011;533;53.556;9.990;2022-09-09T13:17:17;10.40;;;9.30;;
1088;SDS011;533;53.556;9.990;2022-09-09T13:19:51;10.30;;;5.90;;
1088;SDS011;533;53.556;9.990;2022-09-09T13:22:34;9.13;;;5.47;;
1088;SDS011;533;53.556;9.990;2022-09-09T13:28:02;8.30;;;6.17;;
1088;SDS011;533;53.556;9.990;2022-09-09T13:30:36;10.87;;;6.23;;
1088;SDS011;533;53.556;9.990;2022-09-09T13:35:53;11.83;;;5.90;;
1088;SDS011;533;53.556;9.990;2022-09-09T13:38:31;12.83;;;6.67;;
1088;SDS011;533;53.556;9.990;2022-09-09T13:41:06;7.70;;;6.03;;
1088;SDS011;533;53.556;9.990;2022-09-09T13:43:43;10.97;;;6.50;;
1088;SDS011;533;53.556;9.990;2022-09-09T13:46:24;16.07;;;9.47;;
1088;SDS011;533;53.556;9.990;2022-09-09T13:49:16;13.30;;;7.37;;
1088;SDS011;533;53.556;9.990;2022-09-09T13:51:51;9.60;;;8.60;;
1088;SDS011;533;53.556;9.990;2022-09-09T13:54:41;13.50;;;9.57;;
1088;SDS011;533;53.556;9.990;2022-09-09T13:57:23;11.23;;;9.10;;
1088;SDS011;533;53.556;9.990;2022-09-09T13:59:56;13.70;;;8.30;;
1088;SDS011;533;53.556;9.990;2022-09-09T14:02:37;14.53;;;10.50;;
1088;SDS011;533;53.556;9.990;2022-09-09T14:05:10;11.00;;;9.90;;
1088;SDS011;533;53.556;9.990;2022-09-09T14:07:43;18.07;;;8.80;;
1088;SDS011;533;53.556;9.990;2022-09-09T14:10:20;13.03;;;9.00;;
1088;SDS011;533;53.556;9.990;2022-09-09T14:12:53;15.13;;;7.83;;
1088;SDS011;533;53.556;9.990;2022-09-09T14:15:26;9.30;;;8.40;;
1088;SDS011;533;53.556;9.990;2022-09-09T14:17:58;10.90;;;8.57;;
1088;SDS011;533;53.556;9.990;2022-09-09T14:20:31;12.97;;;9.33;;
1088;SDS011;533;53.556;9.990;2022-09-09T14:23:03;13.47;;;8.97;;
1088;SDS011;533;53.556;9.990;2022-09-09T14:25:35;9.73;;;8.00;;
1088;SDS011;533;53.556;9.990;2022-09-09T14:28:11;9.90;;;7.63;;
1088;SDS011;533;53.556;9.990;2022-09-09T14:30:44;9.80;;;8.40;;
1088;SDS011;533;53.556;9.990;2022-09-09T14:33:26;10.63;;;8.13;;
1088;SDS011;533;53.556;9.990;2022-09-09T14:36:01;7.83;;;6.67;;
1088;SDS011;533;53.556;9.990;2022-09-09T14:38:35;9.97;;;6.90;;
1088;SDS011;533;53.556;9.990;2022-09-09T14:41:12;7.47;;;5.90;;
1088;SDS011;533;53.556;9.990;2022-09-09T14:43:49;5.73;;;5.07;;
1088;SDS011;533;53.556;9.990;2022-09-09T14:46:22;6.03;;;5.00;;
1088;SDS011;533;53.556;9.990;2022-09-09T14:48:55;7.00;;;6.30;;
1088;SDS011;533;53.556;9.990;2022-09-09T14:51:28;5.83;;;3.87;;
1088;SDS011;533;53.556;9.990;2022-09-09T14:54:00;6.20;;;5.00;;
1088;SDS011;533;53.556;9.990;2022-09-09T14:56:33;5.03;;;4.30;;
1088;SDS011;533;53.556;9.990;2022-09-09T14:59:06;5.50;;;4.47;;
1088;SDS011;533;53.556;9.990;2022-09-09T15:01:38;6.67;;;3.20;;
1088;SDS011;533;53.556;9.990;2022-09-09T15:04:10;4.17;;;3.30;;
1088;SDS011;533;53.556;9.990;2022-09-09T15:06:43;9.57;;;5.20;;
1088;SDS011;533;53.556;9.990;2022-09-09T15:09:19;6.63;;;4.10;;
1088;SDS011;533;53.556;9.990;2022-09-09T15:11:51;4.77;;;3.90;;
1088;SDS011;533;53.556;9.990;2022-09-09T15:14:23;7.10;;;4.67;;
1088;SDS011;533;53.556;9.990;2022-09-09T15:16:57;5.13;;;3.90;;
1088;SDS011;533;53.556;9.990;2022-09-09T15:19:29;6.10;;;3.67;;
1088;SDS011;533;53.556;9.990;2022-09-09T15:22:02;6.50;;;3.90;;
1088;SDS011;533;53.556;9.990;2022-09-09T15:24:36;6.10;;;4.60;;
1088;SDS011;533;53.556;9.990;2022-09-09T15:27:08;6.00;;;5.40;;
1088;SDS011;533;53.556;9.990;2022-09-09T15:29:41;8.30;;;5.23;;
1088;SDS011;533;53.556;9.990;2022-09-09T15:32:13;7.70;;;6.90;;
1088;SDS011;533;53.556;9.990;2022-09-09T15:34:45;7.50;;;4.80;;
1088;SDS011;533;53.556;9.990;2022-09-09T15:37:17;8.63;;;3.70;;
1088;SDS011;533;53.556;9.990;2022-09-09T15:39:49;5.13;;;4.53;;
1088;SDS011;533;53.556;9.990;2022-09-09T15:42:22;8.27;;;4.83;;
1088;SDS011;533;53.556;9.990;2022-09-09T15:44:54;5.03;;;4.10;;
1088;SDS011;533;53.556;9.990;2022-09-09T15:47:26;4.90;;;3.40;;
1088;SDS011;533;53.556;9.990;2022-09-09T15:49:59;4.37;;;2.97;;
1088;SDS011;533;53.556;9.990;2022-09-09T15:52:31;6.43;;;3.93;;
1088;SDS011;533;53.556;9.990;2022-09-09T15:55:03;9.90;;;4.60;;
1088;SDS011;533;53.556;9.990;2022-09-09T15:57:36;6.20;;;4.17;;
1088;SDS011;533;53.556;9.990;2022-09-09T16:00:08;4.83;;;3.87;;
1088;SDS011;533;53.556;9.990;2022-09-09T16:02:44;7.47;;;3.80;;
1088;SDS011;533;53.556;9.990;2022-09-09T16:05:19;5.30;;;4.43;;
1088;SDS011;533;53.556;9.990;2022-09-09T16:07:52;6.43;;;4.87;;
1088;SDS011;533;53.556;9.990;2022-09-09T16:10:24;6.77;;;5.30;;
1088;SDS011;533;53.556;9.990;2022-09-09T16:12:56;11.10;;;4.87;;
1088;SDS011;533;53.556;9.990;2022-09-09T16:15:28;6.40;;;4.80;;
1088;SDS011;533;53.556;9.990;2022-09-09T16:18:01;8.43;;;5.57;;
1088;SDS011;533;53.556;9.990;2022-09-09T16:20:33;9.53;;;4.83;;
1088;SDS011;533;53.556;9.990;2022-09-09T16:23:06;6.17;;;4.13;;
1088;SDS011;533;53.556;9.990;2022-09-09T16:25:38;6.27;;;4.50;;
1088;SDS011;533;53.556;9.990;2022-09-09T16:28:10;7.23;;;3.90;;
1088;SDS011;533;53.556;9.990;2022-09-09T16:30:42;5.67;;;4.43;;
1088;SDS011;533;53.556;9.990;2022-09-09T16:33:14;4.53;;;3.57;;
1088;SDS011;533;53.556;9.990;2022-09-09T16:35:46;6.13;;;3.80;;
1088;SDS011;533;53.556;9.990;2022-09-09T16:38:18;4.73;;;3.90;;
1088;SDS011;533;53.556;9.990;2022-09-09T16:40:53;4.20;;;3.80;;
1088;SDS011;533;53.556;9.990;2022-09-09T16:43:38;5.20;;;3.80;;
1088;SDS011;533;53.556;9.990;2022-09-09T16:46:36;5.97;;;3.43;;
1088;SDS011;533;53.556;9.990;2022-09-09T16:49:20;7.03;;;3.50;;
1088;SDS011;533;53.556;9.990;2022-09-09T16:52:14;4.43;;;3.23;;
1088;SDS011;533;53.556;9.990;2022-09-09T16:57:42;6.43;;;3.70;;
1088;SDS011;533;53.556;9.990;2022-09-09T17:00:15;5.53;;;3.83;;
1088;SDS011;533;53.556;9.990;2022-09-09T17:02:50;4.77;;;2.97;;
1088;SDS011;533;53.556;9.990;2022-09-09T17:05:22;4.30;;;3.63;;
1088;SDS011;533;53.556;9.990;2022-09-09T17:07:54;7.60;;;4.33;;
1088;SDS011;533;53.556;9.990;2022-09-09T17:10:29;5.63;;;3.37;;
1088;SDS011;533;53.556;9.990;2022-09-09T17:13:01;5.83;;;4.63;;
1088;SDS011;533;53.556;9.990;2022-09-09T17:15:33;6.00;;;3.70;;
1088;SDS011;533;53.556;9.990;2022-09-09T17:18:06;7.90;;;5.37;;
1088;SDS011;533;53.556;9.990;2022-09-09T17:20:38;4.50;;;3.37;;
1088;SDS011;533;53.556;9.990;2022-09-09T17:23:17;8.43;;;5.47;;
1088;SDS011;533;53.556;9.990;2022-09-09T17:25:57;4.73;;;3.07;;
1088;SDS011;533;53.556;9.990;2022-09-09T17:28:30;6.17;;;3.67;;
1088;SDS011;533;53.556;9.990;2022-09-09T17:31:03;5.47;;;3.90;;
1088;SDS011;533;53.556;9.990;2022-09-09T17:33:37;5.67;;;4.40;;
1088;SDS011;533;53.556;9.990;2022-09-09T17:36:15;5.60;;;4.40;;
1088;SDS011;533;53.556;9.990;2022-09-09T17:38:49;6.17;;;4.63;;
1088;SDS011;533;53.556;9.990;2022-09-09T17:41:26;5.60;;;4.10;;
1088;SDS011;533;53.556;9.990;2022-09-09T17:43:59;6.27;;;4.60;;
1088;SDS011;533;53.556;9.990;2022-09-09T17:46:33;4.83;;;4.40;;
1088;SDS011;533;53.556;9.990;2022-09-09T17:49:10;5.00;;;4.23;;
1088;SDS011;533;53.556;9.990;2022-09-09T17:51:46;8.80;;;3.80;;
1088;SDS011;533;53.556;9.990;2022-09-09T17:54:19;4.40;;;3.47;;
1088;SDS011;533;53.556;9.990;2022-09-09T17:56:52;9.30;;;6.60;;
1088;SDS011;533;53.556;9.990;2022-09-09T17:59:24;7.63;;;5.07;;
1088;SDS011;533;53.556;9.990;2022-09-09T18:01:57;5.53;;;4.93;;
1088;SDS011;533;53.556;9.990;2022-09-09T18:04:29;5.30;;;4.80;;
1088;SDS011;533;53.556;9.990;2022-09-09T18:07:01;6.93;;;5.50;;
1088;SDS011;533;53.556;9.990;2022-09-09T18:09:34;11.87;;;6.40;;